sensor_id;sensor_type;location;lat;lon;timestamp;temperature;humidity
41310;DHT22;27057;51.438;-0.010;2023-05-10T00:01:22;12.10;99.90
41310;DHT22;27057;51.438;-0.010;2023-05-10T00:03:49;12.00;99.90
41310;DHT22;27057;51.438;-0.010;2023-05-10T00:06:18;12.20;99.90
41310;DHT22;27057;51.438;-0.010;2023-05-10T00:09:06;12.20;99.90
41310;DHT22;27057;51.438;-0.010;2023-05-10T00:11:36;12.00;99.90
41310;DHT22;27057;51.438;-0.010;2023-05-10T00:14:04;12.00;99.90
41310;DHT22;27057;51.438;-0.010;2023-05-10T00:16:32;12.10;99.90
41310;DHT22;27057;51.438;-0.010;2023-05-10T00:19:20;12.00;99.90
41310;DHT22;27057;51.438;-0.010;2023-05-10T00:21:47;12.30;99.90
41310;DHT22;27057;51.438;-0.010;2023-05-10T00:24:19;12.50;99.90
41310;DHT22;27057;51.438;-0.010;2023-05-10T00:26:50;11.90;99.90
41310;DHT22;27057;51.438;-0.010;2023-05-10T00:29:18;12.00;99.90
41310;DHT22;27057;51.438;-0.010;2023-05-10T00:31:48;12.40;99.90
41310;DHT22;27057;51.438;-0.010;2023-05-10T00:34:16;11.90;99.90
41310;DHT22;27057;51.438;-0.010;2023-05-10T00:36:47;12.10;99.90
41310;DHT22;27057;51.438;-0.010;2023-05-10T00:39:14;12.20;99.90
41310;DHT22;27057;51.438;-0.010;2023-05-10T00:41:43;12.40;99.90
41310;DHT22;27057;51.438;-0.010;2023-05-10T00:44:10;12.10;99.90
41310;DHT22;27057;51.438;-0.010;2023-05-10T00:51:36;12.20;99.90
41310;DHT22;27057;51.438;-0.010;2023-05-10T00:54:05;12.10;99.90
41310;DHT22;27057;51.438;-0.010;2023-05-10T00:56:33;12.30;99.90
41310;DHT22;27057;51.438;-0.010;2023-05-10T00:59:01;12.20;99.90
41310;DHT22;27057;51.438;-0.010;2023-05-10T01:01:41;12.40;99.90
41310;DHT22;27057;51.438;-0.010;2023-05-10T01:04:10;12.40;99.90
41310;DHT22;27057;51.438;-0.010;2023-05-10T01:06:45;12.20;99.90
41310;DHT22;27057;51.438;-0.010;2023-05-10T01:09:13;12.20;99.90
41310;DHT22;27057;51.438;-0.010;2023-05-10T01:11:40;12.70;99.90
41310;DHT22;27057;51.438;-0.010;2023-05-10T01:14:23;12.30;99.90
41310;DHT22;27057;51.438;-0.010;2023-05-10T01:16:52;12.30;99.90
41310;DHT22;27057;51.438;-0.010;2023-05-10T01:20:07;12.20;99.90
41310;DHT22;27057;51.438;-0.010;2023-05-10T01:22:47;12.30;99.90
41310;DHT22;27057;51.438;-0.010;2023-05-10T01:36:35;12.40;99.90
41310;DHT22;27057;51.438;-0.010;2023-05-10T01:43:21;12.40;99.90
41310;DHT22;27057;51.438;-0.010;2023-05-10T01:46:36;12.40;99.90
41310;DHT22;27057;51.438;-0.010;2023-05-10T01:49:34;12.40;99.90
41310;DHT22;27057;51.438;-0.010;2023-05-10T01:52:08;12.40;99.90
41310;DHT22;27057;51.438;-0.010;2023-05-10T01:54:38;12.40;99.90
41310;DHT22;27057;51.438;-0.010;2023-05-10T01:57:09;12.50;99.90
41310;DHT22;27057;51.438;-0.010;2023-05-10T01:59:40;13.20;99.90
41310;DHT22;27057;51.438;-0.010;2023-05-10T02:02:12;12.60;99.90
41310;DHT22;27057;51.438;-0.010;2023-05-10T02:04:41;12.30;99.90
41310;DHT22;27057;51.438;-0.010;2023-05-10T02:07:11;12.90;99.90
41310;DHT22;27057;51.438;-0.010;2023-05-10T02:09:40;12.10;99.90
41310;DHT22;27057;51.438;-0.010;2023-05-10T02:12:08;13.30;99.90
41310;DHT22;27057;51.438;-0.010;2023-05-10T02:14:39;12.30;99.90
41310;DHT22;27057;51.438;-0.010;2023-05-10T02:17:09;12.50;99.90
41310;DHT22;27057;51.438;-0.010;2023-05-10T02:19:40;13.60;99.90
41310;DHT22;27057;51.438;-0.010;2023-05-10T02:22:09;13.40;99.90
41310;DHT22;27057;51.438;-0.010;2023-05-10T02:24:37;11.60;99.90
41310;DHT22;27057;51.438;-0.010;2023-05-10T02:27:06;12.10;99.90
41310;DHT22;27057;51.438;-0.010;2023-05-10T02:29:36;12.60;99.90
41310;DHT22;27057;51.438;-0.010;2023-05-10T02:32:04;12.30;99.90
41310;DHT22;27057;51.438;-0.010;2023-05-10T02:34:32;12.60;99.90
41310;DHT22;27057;51.438;-0.010;2023-05-10T02:37:02;11.90;99.90
41310;DHT22;27057;51.438;-0.010;2023-05-10T02:39:31;13.00;99.90
41310;DHT22;27057;51.438;-0.010;2023-05-10T02:42:00;12.10;99.90
41310;DHT22;27057;51.438;-0.010;2023-05-10T02:44:29;13.60;99.90
41310;DHT22;27057;51.438;-0.010;2023-05-10T02:46:59;13.20;99.90
41310;DHT22;27057;51.438;-0.010;2023-05-10T02:49:28;12.00;99.90
41310;DHT22;27057;51.438;-0.010;2023-05-10T02:51:58;12.10;99.90
41310;DHT22;27057;51.438;-0.010;2023-05-10T02:54:33;12.40;99.90
41310;DHT22;27057;51.438;-0.010;2023-05-10T02:57:04;12.80;99.90
41310;DHT22;27057;51.438;-0.010;2023-05-10T02:59:32;12.10;99.90
41310;DHT22;27057;51.438;-0.010;2023-05-10T03:02:00;12.40;99.90
41310;DHT22;27057;51.438;-0.010;2023-05-10T03:04:27;12.10;99.90
41310;DHT22;27057;51.438;-0.010;2023-05-10T03:06:57;12.00;99.90
41310;DHT22;27057;51.438;-0.010;2023-05-10T03:09:24;12.00;99.90
41310;DHT22;27057;51.438;-0.010;2023-05-10T03:20:08;11.90;99.90
41310;DHT22;27057;51.438;-0.010;2023-05-10T03:22:41;12.00;99.90
41310;DHT22;27057;51.438;-0.010;2023-05-10T03:25:11;13.40;99.90
41310;DHT22;27057;51.438;-0.010;2023-05-10T03:27:42;12.00;99.90
41310;DHT22;27057;51.438;-0.010;2023-05-10T03:30:12;12.00;99.90
41310;DHT22;27057;51.438;-0.010;2023-05-10T03:32:40;11.90;99.90
41310;DHT22;27057;51.438;-0.010;2023-05-10T03:35:12;12.10;99.90
41310;DHT22;27057;51.438;-0.010;2023-05-10T03:37:41;11.90;99.90
41310;DHT22;27057;51.438;-0.010;2023-05-10T03:40:10;11.90;99.90
41310;DHT22;27057;51.438;-0.010;2023-05-10T03:42:40;11.90;99.90
41310;DHT22;27057;51.438;-0.010;2023-05-10T03:45:08;11.90;99.90
41310;DHT22;27057;51.438;-0.010;2023-05-10T03:47:36;9.90;99.90
41310;DHT22;27057;51.438;-0.010;2023-05-10T03:50:05;12.00;99.90
41310;DHT22;27057;51.438;-0.010;2023-05-10T03:52:32;11.80;99.90
41310;DHT22;27057;51.438;-0.010;2023-05-10T03:55:00;12.40;99.90
41310;DHT22;27057;51.438;-0.010;2023-05-10T03:57:30;11.80;99.90
41310;DHT22;27057;51.438;-0.010;2023-05-10T03:59:57;13.30;99.90
41310;DHT22;27057;51.438;-0.010;2023-05-10T04:02:25;12.10;99.90
41310;DHT22;27057;51.438;-0.010;2023-05-10T04:04:53;11.70;99.90
41310;DHT22;27057;51.438;-0.010;2023-05-10T04:07:21;11.80;99.90
41310;DHT22;27057;51.438;-0.010;2023-05-10T04:09:48;13.00;99.90
41310;DHT22;27057;51.438;-0.010;2023-05-10T04:12:16;11.70;99.90
41310;DHT22;27057;51.438;-0.010;2023-05-10T04:14:43;11.60;99.90
41310;DHT22;27057;51.438;-0.010;2023-05-10T04:17:10;11.50;99.90
41310;DHT22;27057;51.438;-0.010;2023-05-10T04:19:38;11.60;99.90
41310;DHT22;27057;51.438;-0.010;2023-05-10T04:22:06;11.90;99.90
41310;DHT22;27057;51.438;-0.010;2023-05-10T04:24:33;11.50;99.90
41310;DHT22;27057;51.438;-0.010;2023-05-10T04:27:00;11.50;99.90
41310;DHT22;27057;51.438;-0.010;2023-05-10T04:29:28;11.70;99.90
41310;DHT22;27057;51.438;-0.010;2023-05-10T04:31:55;11.10;99.90
41310;DHT22;27057;51.438;-0.010;2023-05-10T04:34:23;11.30;99.90
41310;DHT22;27057;51.438;-0.010;2023-05-10T04:36:51;11.30;99.90
41310;DHT22;27057;51.438;-0.010;2023-05-10T04:39:18;11.50;99.90
41310;DHT22;27057;51.438;-0.010;2023-05-10T04:41:47;11.50;99.90
41310;DHT22;27057;51.438;-0.010;2023-05-10T04:44:14;11.30;99.90
41310;DHT22;27057;51.438;-0.010;2023-05-10T04:46:43;11.30;99.90
41310;DHT22;27057;51.438;-0.010;2023-05-10T04:49:10;11.30;99.90
41310;DHT22;27057;51.438;-0.010;2023-05-10T04:51:39;13.40;99.90
41310;DHT22;27057;51.438;-0.010;2023-05-10T04:56:35;11.20;99.90
41310;DHT22;27057;51.438;-0.010;2023-05-10T04:59:02;11.50;99.90
41310;DHT22;27057;51.438;-0.010;2023-05-10T05:01:30;11.20;99.90
41310;DHT22;27057;51.438;-0.010;2023-05-10T05:03:58;10.90;99.90
41310;DHT22;27057;51.438;-0.010;2023-05-10T05:06:25;11.30;99.90
41310;DHT22;27057;51.438;-0.010;2023-05-10T05:08:54;12.30;99.90
41310;DHT22;27057;51.438;-0.010;2023-05-10T05:11:21;11.10;99.90
41310;DHT22;27057;51.438;-0.010;2023-05-10T05:13:49;11.30;99.90
41310;DHT22;27057;51.438;-0.010;2023-05-10T05:16:16;11.10;99.90
41310;DHT22;27057;51.438;-0.010;2023-05-10T05:18:45;11.50;99.90
41310;DHT22;27057;51.438;-0.010;2023-05-10T05:21:19;11.40;99.90
41310;DHT22;27057;51.438;-0.010;2023-05-10T05:26:15;11.10;99.90
41310;DHT22;27057;51.438;-0.010;2023-05-10T05:28:44;11.10;99.90
41310;DHT22;27057;51.438;-0.010;2023-05-10T05:31:11;11.00;99.90
41310;DHT22;27057;51.438;-0.010;2023-05-10T05:33:40;11.20;99.90
41310;DHT22;27057;51.438;-0.010;2023-05-10T05:36:07;12.20;99.90
41310;DHT22;27057;51.438;-0.010;2023-05-10T05:38:36;11.10;99.90
41310;DHT22;27057;51.438;-0.010;2023-05-10T05:41:06;11.60;99.90
41310;DHT22;27057;51.438;-0.010;2023-05-10T05:43:34;11.50;99.90
41310;DHT22;27057;51.438;-0.010;2023-05-10T05:46:04;11.60;99.90
41310;DHT22;27057;51.438;-0.010;2023-05-10T05:48:32;11.40;99.90
41310;DHT22;27057;51.438;-0.010;2023-05-10T05:51:00;12.50;99.90
41310;DHT22;27057;51.438;-0.010;2023-05-10T05:53:27;12.00;99.90
41310;DHT22;27057;51.438;-0.010;2023-05-10T05:55:57;12.80;99.90
41310;DHT22;27057;51.438;-0.010;2023-05-10T05:58:25;11.60;99.90
41310;DHT22;27057;51.438;-0.010;2023-05-10T06:00:53;11.60;99.90
41310;DHT22;27057;51.438;-0.010;2023-05-10T06:03:21;12.70;99.90
41310;DHT22;27057;51.438;-0.010;2023-05-10T06:05:48;11.80;99.90
41310;DHT22;27057;51.438;-0.010;2023-05-10T06:08:16;12.80;99.90
41310;DHT22;27057;51.438;-0.010;2023-05-10T06:10:44;11.80;99.90
41310;DHT22;27057;51.438;-0.010;2023-05-10T06:13:12;12.30;99.90
41310;DHT22;27057;51.438;-0.010;2023-05-10T06:15:39;12.00;99.90
41310;DHT22;27057;51.438;-0.010;2023-05-10T06:18:07;11.90;99.90
41310;DHT22;27057;51.438;-0.010;2023-05-10T06:20:34;11.70;99.90
41310;DHT22;27057;51.438;-0.010;2023-05-10T06:23:02;11.70;99.90
41310;DHT22;27057;51.438;-0.010;2023-05-10T06:25:30;11.80;99.90
41310;DHT22;27057;51.438;-0.010;2023-05-10T06:27:58;12.90;99.90
41310;DHT22;27057;51.438;-0.010;2023-05-10T06:30:25;12.00;99.90
41310;DHT22;27057;51.438;-0.010;2023-05-10T06:32:57;12.30;99.90
41310;DHT22;27057;51.438;-0.010;2023-05-10T06:35:25;12.00;99.90
41310;DHT22;27057;51.438;-0.010;2023-05-10T06:37:53;11.90;99.90
41310;DHT22;27057;51.438;-0.010;2023-05-10T06:40:21;11.90;99.90
41310;DHT22;27057;51.438;-0.010;2023-05-10T06:42:49;12.00;99.90
41310;DHT22;27057;51.438;-0.010;2023-05-10T06:45:17;11.80;99.90
41310;DHT22;27057;51.438;-0.010;2023-05-10T06:47:45;11.70;99.90
41310;DHT22;27057;51.438;-0.010;2023-05-10T06:50:13;11.90;99.90
41310;DHT22;27057;51.438;-0.010;2023-05-10T06:52:41;12.40;99.90
41310;DHT22;27057;51.438;-0.010;2023-05-10T06:55:10;12.10;99.90
41310;DHT22;27057;51.438;-0.010;2023-05-10T06:57:39;12.60;99.90
41310;DHT22;27057;51.438;-0.010;2023-05-10T07:00:07;12.20;99.90
41310;DHT22;27057;51.438;-0.010;2023-05-10T07:02:36;12.30;99.90
41310;DHT22;27057;51.438;-0.010;2023-05-10T07:05:04;14.20;99.90
41310;DHT22;27057;51.438;-0.010;2023-05-10T07:07:32;12.40;99.90
41310;DHT22;27057;51.438;-0.010;2023-05-10T07:09:59;12.50;99.90
41310;DHT22;27057;51.438;-0.010;2023-05-10T07:12:27;12.80;99.90
41310;DHT22;27057;51.438;-0.010;2023-05-10T07:14:55;12.80;99.90
41310;DHT22;27057;51.438;-0.010;2023-05-10T07:17:24;13.10;99.90
41310;DHT22;27057;51.438;-0.010;2023-05-10T07:19:52;13.10;99.90
41310;DHT22;27057;51.438;-0.010;2023-05-10T07:22:20;13.00;99.90
41310;DHT22;27057;51.438;-0.010;2023-05-10T07:24:48;12.90;99.90
41310;DHT22;27057;51.438;-0.010;2023-05-10T07:27:16;13.10;99.90
41310;DHT22;27057;51.438;-0.010;2023-05-10T07:29:43;12.90;99.90
41310;DHT22;27057;51.438;-0.010;2023-05-10T07:32:11;12.90;99.90
41310;DHT22;27057;51.438;-0.010;2023-05-10T07:34:38;14.70;99.90
41310;DHT22;27057;51.438;-0.010;2023-05-10T07:37:06;12.90;99.90
41310;DHT22;27057;51.438;-0.010;2023-05-10T07:39:36;12.90;99.90
41310;DHT22;27057;51.438;-0.010;2023-05-10T07:42:04;12.90;99.90
41310;DHT22;27057;51.438;-0.010;2023-05-10T07:44:33;13.00;99.90
41310;DHT22;27057;51.438;-0.010;2023-05-10T07:47:03;14.10;99.90
41310;DHT22;27057;51.438;-0.010;2023-05-10T07:49:30;13.10;99.90
41310;DHT22;27057;51.438;-0.010;2023-05-10T07:51:58;13.10;99.90
41310;DHT22;27057;51.438;-0.010;2023-05-10T07:54:25;13.30;99.90
41310;DHT22;27057;51.438;-0.010;2023-05-10T07:56:53;13.20;99.90
41310;DHT22;27057;51.438;-0.010;2023-05-10T07:59:20;13.30;99.90
41310;DHT22;27057;51.438;-0.010;2023-05-10T08:01:48;13.40;99.90
41310;DHT22;27057;51.438;-0.010;2023-05-10T08:04:16;13.90;99.90
41310;DHT22;27057;51.438;-0.010;2023-05-10T08:06:44;13.40;99.90
41310;DHT22;27057;51.438;-0.010;2023-05-10T08:09:13;13.50;99.90
41310;DHT22;27057;51.438;-0.010;2023-05-10T08:11:40;13.70;99.90
41310;DHT22;27057;51.438;-0.010;2023-05-10T08:14:08;13.90;99.90
41310;DHT22;27057;51.438;-0.010;2023-05-10T08:16:35;13.60;99.90
41310;DHT22;27057;51.438;-0.010;2023-05-10T08:19:03;13.60;99.90
41310;DHT22;27057;51.438;-0.010;2023-05-10T08:21:31;13.70;99.90
41310;DHT22;27057;51.438;-0.010;2023-05-10T08:23:59;14.50;99.90
41310;DHT22;27057;51.438;-0.010;2023-05-10T08:26:26;13.90;99.90
41310;DHT22;27057;51.438;-0.010;2023-05-10T08:28:55;15.20;99.90
41310;DHT22;27057;51.438;-0.010;2023-05-10T08:31:22;15.10;99.90
41310;DHT22;27057;51.438;-0.010;2023-05-10T08:33:50;14.10;99.90
41310;DHT22;27057;51.438;-0.010;2023-05-10T08:36:20;14.10;99.90
41310;DHT22;27057;51.438;-0.010;2023-05-10T08:38:53;14.10;99.90
41310;DHT22;27057;51.438;-0.010;2023-05-10T08:41:23;14.10;99.90
41310;DHT22;27057;51.438;-0.010;2023-05-10T08:43:53;14.20;99.90
41310;DHT22;27057;51.438;-0.010;2023-05-10T08:46:23;14.20;99.90
41310;DHT22;27057;51.438;-0.010;2023-05-10T08:48:51;14.30;99.90
41310;DHT22;27057;51.438;-0.010;2023-05-10T08:51:22;14.50;99.90
41310;DHT22;27057;51.438;-0.010;2023-05-10T08:53:53;14.60;99.90
41310;DHT22;27057;51.438;-0.010;2023-05-10T08:56:20;14.60;99.90
41310;DHT22;27057;51.438;-0.010;2023-05-10T08:58:48;14.80;99.90
41310;DHT22;27057;51.438;-0.010;2023-05-10T09:01:18;15.00;99.90
41310;DHT22;27057;51.438;-0.010;2023-05-10T09:03:47;14.70;99.90
41310;DHT22;27057;51.438;-0.010;2023-05-10T09:06:15;14.70;99.90
41310;DHT22;27057;51.438;-0.010;2023-05-10T09:08:44;14.80;99.90
41310;DHT22;27057;51.438;-0.010;2023-05-10T09:11:12;14.90;99.90
41310;DHT22;27057;51.438;-0.010;2023-05-10T09:13:40;15.00;99.90
41310;DHT22;27057;51.438;-0.010;2023-05-10T09:16:09;14.90;99.90
41310;DHT22;27057;51.438;-0.010;2023-05-10T09:18:48;15.10;99.90
41310;DHT22;27057;51.438;-0.010;2023-05-10T09:21:16;15.10;99.90
41310;DHT22;27057;51.438;-0.010;2023-05-10T09:23:48;15.20;99.90
41310;DHT22;27057;51.438;-0.010;2023-05-10T09:26:17;15.50;99.90
41310;DHT22;27057;51.438;-0.010;2023-05-10T09:28:57;15.40;99.90
41310;DHT22;27057;51.438;-0.010;2023-05-10T09:31:47;15.30;99.90
41310;DHT22;27057;51.438;-0.010;2023-05-10T09:34:19;14.20;99.90
41310;DHT22;27057;51.438;-0.010;2023-05-10T09:36:55;15.40;99.90
41310;DHT22;27057;51.438;-0.010;2023-05-10T09:42:03;15.50;99.90
41310;DHT22;27057;51.438;-0.010;2023-05-10T09:44:34;15.50;99.90
41310;DHT22;27057;51.438;-0.010;2023-05-10T09:47:02;15.80;99.90
41310;DHT22;27057;51.438;-0.010;2023-05-10T09:49:31;15.60;99.90
41310;DHT22;27057;51.438;-0.010;2023-05-10T09:54:28;16.10;99.90
41310;DHT22;27057;51.438;-0.010;2023-05-10T09:56:56;15.70;99.90
41310;DHT22;27057;51.438;-0.010;2023-05-10T09:59:27;16.10;99.90
41310;DHT22;27057;51.438;-0.010;2023-05-10T10:01:57;16.00;99.90
41310;DHT22;27057;51.438;-0.010;2023-05-10T10:04:27;16.00;99.90
41310;DHT22;27057;51.438;-0.010;2023-05-10T10:07:03;16.20;99.90
41310;DHT22;27057;51.438;-0.010;2023-05-10T10:09:31;17.30;99.90
41310;DHT22;27057;51.438;-0.010;2023-05-10T10:12:02;16.40;99.90
41310;DHT22;27057;51.438;-0.010;2023-05-10T10:14:30;16.40;99.90
41310;DHT22;27057;51.438;-0.010;2023-05-10T10:17:00;16.60;99.90
41310;DHT22;27057;51.438;-0.010;2023-05-10T10:19:33;16.50;99.90
41310;DHT22;27057;51.438;-0.010;2023-05-10T10:22:00;16.80;99.90
41310;DHT22;27057;51.438;-0.010;2023-05-10T10:24:28;16.80;99.90
41310;DHT22;27057;51.438;-0.010;2023-05-10T10:26:59;16.70;99.90
41310;DHT22;27057;51.438;-0.010;2023-05-10T10:29:40;16.80;99.90
41310;DHT22;27057;51.438;-0.010;2023-05-10T10:35:15;16.80;99.90
41310;DHT22;27057;51.438;-0.010;2023-05-10T10:37:47;16.90;99.90
41310;DHT22;27057;51.438;-0.010;2023-05-10T10:40:30;16.90;99.90
41310;DHT22;27057;51.438;-0.010;2023-05-10T10:43:26;16.90;99.90
41310;DHT22;27057;51.438;-0.010;2023-05-10T10:48:49;17.30;99.90
41310;DHT22;27057;51.438;-0.010;2023-05-10T10:51:18;17.60;99.90
41310;DHT22;27057;51.438;-0.010;2023-05-10T10:53:48;17.50;99.90
41310;DHT22;27057;51.438;-0.010;2023-05-10T10:56:15;17.50;99.90
41310;DHT22;27057;51.438;-0.010;2023-05-10T10:58:49;17.40;99.90
41310;DHT22;27057;51.438;-0.010;2023-05-10T11:04:17;17.10;99.90
41310;DHT22;27057;51.438;-0.010;2023-05-10T11:06:45;17.30;99.90
41310;DHT22;27057;51.438;-0.010;2023-05-10T11:09:13;17.40;99.90
41310;DHT22;27057;51.438;-0.010;2023-05-10T11:11:52;17.50;99.90
41310;DHT22;27057;51.438;-0.010;2023-05-10T11:14:22;17.50;99.90
41310;DHT22;27057;51.438;-0.010;2023-05-10T11:16:55;17.80;99.90
41310;DHT22;27057;51.438;-0.010;2023-05-10T11:19:27;17.90;99.90
41310;DHT22;27057;51.438;-0.010;2023-05-10T11:24:32;18.20;99.90
41310;DHT22;27057;51.438;-0.010;2023-05-10T11:27:00;18.50;99.90
41310;DHT22;27057;51.438;-0.010;2023-05-10T11:29:28;18.50;99.90
41310;DHT22;27057;51.438;-0.010;2023-05-10T11:31:58;18.70;99.90
41310;DHT22;27057;51.438;-0.010;2023-05-10T11:34:30;18.90;99.90
41310;DHT22;27057;51.438;-0.010;2023-05-10T11:36:58;18.90;99.90
41310;DHT22;27057;51.438;-0.010;2023-05-10T11:39:27;19.30;99.90
41310;DHT22;27057;51.438;-0.010;2023-05-10T11:41:55;19.40;99.90
41310;DHT22;27057;51.438;-0.010;2023-05-10T11:46:50;19.20;99.90
41310;DHT22;27057;51.438;-0.010;2023-05-10T11:49:19;19.20;99.90
41310;DHT22;27057;51.438;-0.010;2023-05-10T11:51:48;19.10;99.90
41310;DHT22;27057;51.438;-0.010;2023-05-10T11:56:43;18.70;99.90
41310;DHT22;27057;51.438;-0.010;2023-05-10T11:59:14;19.20;99.90
41310;DHT22;27057;51.438;-0.010;2023-05-10T12:01:42;19.30;99.90
41310;DHT22;27057;51.438;-0.010;2023-05-10T12:04:10;18.90;99.90
41310;DHT22;27057;51.438;-0.010;2023-05-10T12:06:40;18.90;99.90
41310;DHT22;27057;51.438;-0.010;2023-05-10T12:09:08;18.70;99.90
41310;DHT22;27057;51.438;-0.010;2023-05-10T12:11:39;18.60;99.90
41310;DHT22;27057;51.438;-0.010;2023-05-10T12:14:10;18.50;99.90
41310;DHT22;27057;51.438;-0.010;2023-05-10T12:16:40;18.60;99.90
41310;DHT22;27057;51.438;-0.010;2023-05-10T12:19:07;18.50;99.90
41310;DHT22;27057;51.438;-0.010;2023-05-10T12:21:35;18.70;99.90
41310;DHT22;27057;51.438;-0.010;2023-05-10T12:24:05;18.80;99.90
41310;DHT22;27057;51.438;-0.010;2023-05-10T12:26:32;18.80;99.90
41310;DHT22;27057;51.438;-0.010;2023-05-10T12:29:18;18.80;99.90
41310;DHT22;27057;51.438;-0.010;2023-05-10T12:31:54;18.70;99.90
41310;DHT22;27057;51.438;-0.010;2023-05-10T12:34:29;18.60;99.90
41310;DHT22;27057;51.438;-0.010;2023-05-10T12:36:57;18.70;99.90
41310;DHT22;27057;51.438;-0.010;2023-05-10T12:39:25;18.70;99.90
41310;DHT22;27057;51.438;-0.010;2023-05-10T12:41:53;18.80;99.90
41310;DHT22;27057;51.438;-0.010;2023-05-10T12:44:23;18.80;99.90
41310;DHT22;27057;51.438;-0.010;2023-05-10T12:46:51;18.90;99.90
41310;DHT22;27057;51.438;-0.010;2023-05-10T12:49:18;18.90;99.90
41310;DHT22;27057;51.438;-0.010;2023-05-10T12:51:47;19.00;99.90
41310;DHT22;27057;51.438;-0.010;2023-05-10T12:54:14;18.80;99.90
41310;DHT22;27057;51.438;-0.010;2023-05-10T12:56:43;18.80;99.90
41310;DHT22;27057;51.438;-0.010;2023-05-10T12:59:10;18.80;99.90
41310;DHT22;27057;51.438;-0.010;2023-05-10T13:01:37;18.70;99.90
41310;DHT22;27057;51.438;-0.010;2023-05-10T13:04:05;19.20;99.90
41310;DHT22;27057;51.438;-0.010;2023-05-10T13:06:32;19.30;99.90
41310;DHT22;27057;51.438;-0.010;2023-05-10T13:08:59;19.30;99.90
41310;DHT22;27057;51.438;-0.010;2023-05-10T13:11:27;19.40;99.90
41310;DHT22;27057;51.438;-0.010;2023-05-10T13:13:54;19.30;99.90
41310;DHT22;27057;51.438;-0.010;2023-05-10T13:18:51;19.90;99.90
41310;DHT22;27057;51.438;-0.010;2023-05-10T13:21:19;20.30;99.90
41310;DHT22;27057;51.438;-0.010;2023-05-10T13:23:46;20.90;99.90
41310;DHT22;27057;51.438;-0.010;2023-05-10T13:26:13;20.40;99.90
41310;DHT22;27057;51.438;-0.010;2023-05-10T13:28:41;20.40;99.90
41310;DHT22;27057;51.438;-0.010;2023-05-10T13:31:09;20.10;99.90
41310;DHT22;27057;51.438;-0.010;2023-05-10T13:33:36;19.90;99.90
41310;DHT22;27057;51.438;-0.010;2023-05-10T13:36:04;19.60;99.90
41310;DHT22;27057;51.438;-0.010;2023-05-10T13:38:32;19.40;99.90
41310;DHT22;27057;51.438;-0.010;2023-05-10T13:40:59;19.10;99.90
41310;DHT22;27057;51.438;-0.010;2023-05-10T13:43:28;18.50;99.90
41310;DHT22;27057;51.438;-0.010;2023-05-10T13:45:55;18.70;99.90
41310;DHT22;27057;51.438;-0.010;2023-05-10T13:48:23;18.50;99.90
41310;DHT22;27057;51.438;-0.010;2023-05-10T13:50:50;18.70;99.90
41310;DHT22;27057;51.438;-0.010;2023-05-10T13:53:18;18.10;99.90
41310;DHT22;27057;51.438;-0.010;2023-05-10T13:55:45;17.80;99.90
41310;DHT22;27057;51.438;-0.010;2023-05-10T13:58:13;17.50;99.90
41310;DHT22;27057;51.438;-0.010;2023-05-10T14:00:40;17.20;99.90
41310;DHT22;27057;51.438;-0.010;2023-05-10T14:03:08;17.00;99.90
41310;DHT22;27057;51.438;-0.010;2023-05-10T14:05:38;16.90;99.90
41310;DHT22;27057;51.438;-0.010;2023-05-10T14:08:06;16.70;99.90
41310;DHT22;27057;51.438;-0.010;2023-05-10T14:10:34;16.50;99.90
41310;DHT22;27057;51.438;-0.010;2023-05-10T14:13:01;16.30;99.90
41310;DHT22;27057;51.438;-0.010;2023-05-10T14:15:30;16.20;99.90
41310;DHT22;27057;51.438;-0.010;2023-05-10T14:17:58;16.00;99.90
41310;DHT22;27057;51.438;-0.010;2023-05-10T14:20:26;15.70;99.90
41310;DHT22;27057;51.438;-0.010;2023-05-10T14:22:53;16.20;99.90
41310;DHT22;27057;51.438;-0.010;2023-05-10T14:25:21;15.80;99.90
41310;DHT22;27057;51.438;-0.010;2023-05-10T14:27:48;15.20;99.90
41310;DHT22;27057;51.438;-0.010;2023-05-10T14:30:16;15.70;99.90
41310;DHT22;27057;51.438;-0.010;2023-05-10T14:32:43;15.90;99.90
41310;DHT22;27057;51.438;-0.010;2023-05-10T14:35:11;16.10;99.90
41310;DHT22;27057;51.438;-0.010;2023-05-10T14:37:43;16.30;99.90
41310;DHT22;27057;51.438;-0.010;2023-05-10T14:40:11;16.50;99.90
41310;DHT22;27057;51.438;-0.010;2023-05-10T14:42:39;16.50;99.90
41310;DHT22;27057;51.438;-0.010;2023-05-10T14:45:07;16.50;99.90
41310;DHT22;27057;51.438;-0.010;2023-05-10T14:47:37;18.20;99.90
41310;DHT22;27057;51.438;-0.010;2023-05-10T14:50:05;18.80;99.90
41310;DHT22;27057;51.438;-0.010;2023-05-10T14:52:34;19.00;99.90
41310;DHT22;27057;51.438;-0.010;2023-05-10T14:55:02;19.70;99.90
41310;DHT22;27057;51.438;-0.010;2023-05-10T14:57:29;19.50;99.90
41310;DHT22;27057;51.438;-0.010;2023-05-10T14:59:57;19.60;99.90
41310;DHT22;27057;51.438;-0.010;2023-05-10T15:02:25;19.60;99.90
41310;DHT22;27057;51.438;-0.010;2023-05-10T15:04:53;20.30;99.90
41310;DHT22;27057;51.438;-0.010;2023-05-10T15:07:21;20.10;99.90
41310;DHT22;27057;51.438;-0.010;2023-05-10T15:09:49;19.80;99.90
41310;DHT22;27057;51.438;-0.010;2023-05-10T15:12:18;18.90;99.90
41310;DHT22;27057;51.438;-0.010;2023-05-10T15:17:13;18.60;99.90
41310;DHT22;27057;51.438;-0.010;2023-05-10T15:19:42;18.20;99.90
41310;DHT22;27057;51.438;-0.010;2023-05-10T15:22:11;18.00;99.90
41310;DHT22;27057;51.438;-0.010;2023-05-10T15:24:39;16.90;99.90
41310;DHT22;27057;51.438;-0.010;2023-05-10T15:27:07;16.80;99.90
41310;DHT22;27057;51.438;-0.010;2023-05-10T15:29:34;16.80;99.90
41310;DHT22;27057;51.438;-0.010;2023-05-10T15:32:03;17.10;99.90
41310;DHT22;27057;51.438;-0.010;2023-05-10T15:37:02;18.60;99.90
41310;DHT22;27057;51.438;-0.010;2023-05-10T15:39:30;19.40;99.90
41310;DHT22;27057;51.438;-0.010;2023-05-10T15:41:57;20.10;99.90
41310;DHT22;27057;51.438;-0.010;2023-05-10T15:44:24;20.80;99.90
41310;DHT22;27057;51.438;-0.010;2023-05-10T15:46:52;21.20;99.90
41310;DHT22;27057;51.438;-0.010;2023-05-10T15:51:47;21.80;99.90
41310;DHT22;27057;51.438;-0.010;2023-05-10T15:54:16;21.80;99.90
41310;DHT22;27057;51.438;-0.010;2023-05-10T15:56:43;21.30;99.90
41310;DHT22;27057;51.438;-0.010;2023-05-10T15:59:11;20.80;99.90
41310;DHT22;27057;51.438;-0.010;2023-05-10T16:01:38;19.50;99.90
41310;DHT22;27057;51.438;-0.010;2023-05-10T16:04:06;19.50;99.90
41310;DHT22;27057;51.438;-0.010;2023-05-10T16:06:34;18.30;99.90
41310;DHT22;27057;51.438;-0.010;2023-05-10T16:09:02;18.50;99.90
41310;DHT22;27057;51.438;-0.010;2023-05-10T16:11:31;18.10;99.90
41310;DHT22;27057;51.438;-0.010;2023-05-10T16:13:58;17.80;99.90
41310;DHT22;27057;51.438;-0.010;2023-05-10T16:16:26;17.50;99.90
41310;DHT22;27057;51.438;-0.010;2023-05-10T16:18:54;17.40;99.90
41310;DHT22;27057;51.438;-0.010;2023-05-10T16:21:22;17.20;99.90
41310;DHT22;27057;51.438;-0.010;2023-05-10T16:23:50;17.10;99.90
41310;DHT22;27057;51.438;-0.010;2023-05-10T16:26:17;16.90;99.90
41310;DHT22;27057;51.438;-0.010;2023-05-10T16:28:45;16.60;99.90
41310;DHT22;27057;51.438;-0.010;2023-05-10T16:31:13;16.60;99.90
41310;DHT22;27057;51.438;-0.010;2023-05-10T16:33:40;16.50;99.90